sensor_id;sensor_type;location;lat;lon;timestamp;pressure;altitude;pressure_sealevel;temperature;humidity
76108;BME280;64834;52.516;10.528;2023-12-22T00:01:57;98425.56;;;3.06;100.00
76108;BME280;64834;52.516;10.528;2023-12-22T00:04:22;98424.84;;;3.08;100.00
76108;BME280;64834;52.516;10.528;2023-12-22T00:06:47;98414.81;;;2.96;100.00
76108;BME280;64834;52.516;10.528;2023-12-22T00:09:14;98418.09;;;2.94;100.00
76108;BME280;64834;52.516;10.528;2023-12-22T00:11:39;98414.72;;;2.95;100.00
76108;BME280;64834;52.516;10.528;2023-12-22T00:14:04;98424.09;;;2.93;100.00
76108;BME280;64834;52.516;10.528;2023-12-22T00:16:30;98430.16;;;2.93;100.00
76108;BME280;64834;52.516;10.528;2023-12-22T00:18:55;98431.84;;;2.93;100.00
76108;BME280;64834;52.516;10.528;2023-12-22T00:21:21;98430.16;;;2.93;100.00
76108;BME280;64834;52.516;10.528;2023-12-22T00:23:46;98442.63;;;3.02;100.00
76108;BME280;64834;52.516;10.528;2023-12-22T00:26:12;98449.00;;;3.09;100.00
76108;BME280;64834;52.516;10.528;2023-12-22T00:28:37;98446.53;;;3.12;100.00
76108;BME280;64834;52.516;10.528;2023-12-22T00:31:02;98452.38;;;3.25;100.00
76108;BME280;64834;52.516;10.528;2023-12-22T00:33:28;98446.91;;;3.37;100.00
76108;BME280;64834;52.516;10.528;2023-12-22T00:35:53;98461.75;;;3.41;100.00
76108;BME280;64834;52.516;10.528;2023-12-22T00:38:18;98449.72;;;3.42;100.00
76108;BME280;64834;52.516;10.528;2023-12-22T00:40:44;98464.47;;;3.44;100.00
76108;BME280;64834;52.516;10.528;2023-12-22T00:43:09;98455.00;;;3.45;100.00
76108;BME280;64834;52.516;10.528;2023-12-22T00:45:34;98451.91;;;3.52;100.00
76108;BME280;64834;52.516;10.528;2023-12-22T00:48:00;98467.50;;;3.54;100.00
76108;BME280;64834;52.516;10.528;2023-12-22T00:50:25;98459.16;;;3.59;100.00
76108;BME280;64834;52.516;10.528;2023-12-22T00:52:50;98468.59;;;3.59;100.00
76108;BME280;64834;52.516;10.528;2023-12-22T00:55:16;98470.22;;;3.57;100.00
76108;BME280;64834;52.516;10.528;2023-12-22T00:57:41;98468.66;;;3.60;100.00
76108;BME280;64834;52.516;10.528;2023-12-22T01:00:08;98474.66;;;3.59;100.00
76108;BME280;64834;52.516;10.528;2023-12-22T01:02:37;98478.78;;;3.56;100.00
76108;BME280;64834;52.516;10.528;2023-12-22T01:05:02;98485.88;;;3.60;100.00
76108;BME280;64834;52.516;10.528;2023-12-22T01:07:28;98492.81;;;3.61;100.00
76108;BME280;64834;52.516;10.528;2023-12-22T01:09:53;98486.84;;;3.62;100.00
76108;BME280;64834;52.516;10.528;2023-12-22T01:12:19;98479.38;;;3.50;100.00
76108;BME280;64834;52.516;10.528;2023-12-22T01:14:44;98491.06;;;3.42;100.00
76108;BME280;64834;52.516;10.528;2023-12-22T01:17:10;98513.81;;;3.31;100.00
76108;BME280;64834;52.516;10.528;2023-12-22T01:19:36;98487.66;;;3.07;100.00
76108;BME280;64834;52.516;10.528;2023-12-22T01:22:01;98497.38;;;2.95;100.00
76108;BME280;64834;52.516;10.528;2023-12-22T01:24:27;98508.66;;;2.79;100.00
76108;BME280;64834;52.516;10.528;2023-12-22T01:26:52;98500.91;;;2.79;100.00
76108;BME280;64834;52.516;10.528;2023-12-22T01:29:18;98501.41;;;2.72;100.00
76108;BME280;64834;52.516;10.528;2023-12-22T01:31:43;98518.81;;;2.76;100.00
76108;BME280;64834;52.516;10.528;2023-12-22T01:34:08;98503.97;;;2.72;100.00
76108;BME280;64834;52.516;10.528;2023-12-22T01:36:34;98518.50;;;2.70;100.00
76108;BME280;64834;52.516;10.528;2023-12-22T01:38:59;98524.47;;;2.69;100.00
76108;BME280;64834;52.516;10.528;2023-12-22T01:41:25;98493.72;;;2.74;100.00
76108;BME280;64834;52.516;10.528;2023-12-22T01:43:50;98508.88;;;2.84;100.00
76108;BME280;64834;52.516;10.528;2023-12-22T01:46:15;98495.19;;;3.03;100.00
76108;BME280;64834;52.516;10.528;2023-12-22T01:48:41;98489.59;;;3.11;100.00
76108;BME280;64834;52.516;10.528;2023-12-22T01:51:06;98483.75;;;3.15;100.00
76108;BME280;64834;52.516;10.528;2023-12-22T01:53:32;98479.78;;;3.22;100.00
76108;BME280;64834;52.516;10.528;2023-12-22T01:55:59;98464.16;;;3.38;100.00
76108;BME280;64834;52.516;10.528;2023-12-22T01:58:26;98467.22;;;3.47;100.00
76108;BME280;64834;52.516;10.528;2023-12-22T02:00:53;98478.84;;;3.57;100.00
76108;BME280;64834;52.516;10.528;2023-12-22T02:03:19;98475.84;;;3.48;100.00
76108;BME280;64834;52.516;10.528;2023-12-22T02:05:44;98484.44;;;3.47;100.00
76108;BME280;64834;52.516;10.528;2023-12-22T02:08:11;98468.31;;;3.53;100.00
76108;BME280;64834;52.516;10.528;2023-12-22T02:10:36;98488.84;;;3.49;100.00
76108;BME280;64834;52.516;10.528;2023-12-22T02:13:02;98508.19;;;3.58;100.00
76108;BME280;64834;52.516;10.528;2023-12-22T02:15:28;98495.34;;;3.59;100.00
76108;BME280;64834;52.516;10.528;2023-12-22T02:17:59;98498.88;;;3.61;100.00
76108;BME280;64834;52.516;10.528;2023-12-22T02:20:26;98498.88;;;3.61;100.00
76108;BME280;64834;52.516;10.528;2023-12-22T02:22:52;98496.00;;;3.55;100.00
76108;BME280;64834;52.516;10.528;2023-12-22T02:25:18;98514.75;;;3.51;100.00
76108;BME280;64834;52.516;10.528;2023-12-22T02:30:21;98511.59;;;3.39;100.00
76108;BME280;64834;52.516;10.528;2023-12-22T02:32:50;98495.88;;;3.34;100.00
76108;BME280;64834;52.516;10.528;2023-12-22T02:35:19;98483.25;;;3.40;100.00
76108;BME280;64834;52.516;10.528;2023-12-22T02:37:47;98480.25;;;3.50;100.00
76108;BME280;64834;52.516;10.528;2023-12-22T02:40:14;98480.72;;;3.42;100.00
76108;BME280;64834;52.516;10.528;2023-12-22T02:42:39;98479.63;;;3.37;100.00
76108;BME280;64834;52.516;10.528;2023-12-22T02:45:05;98472.81;;;3.39;100.00
76108;BME280;64834;52.516;10.528;2023-12-22T02:47:31;98472.81;;;3.39;100.00
76108;BME280;64834;52.516;10.528;2023-12-22T02:49:58;98472.03;;;3.40;100.00
76108;BME280;64834;52.516;10.528;2023-12-22T02:52:23;98479.69;;;3.38;100.00
76108;BME280;64834;52.516;10.528;2023-12-22T02:54:49;98476.22;;;3.38;100.00
76108;BME280;64834;52.516;10.528;2023-12-22T02:57:14;98477.78;;;3.34;100.00
76108;BME280;64834;52.516;10.528;2023-12-22T02:59:39;98468.16;;;3.32;100.00
76108;BME280;64834;52.516;10.528;2023-12-22T03:02:05;98466.69;;;3.37;100.00
76108;BME280;64834;52.516;10.528;2023-12-22T03:04:30;98468.09;;;3.30;100.00
76108;BME280;64834;52.516;10.528;2023-12-22T03:06:56;98464.03;;;3.35;100.00
76108;BME280;64834;52.516;10.528;2023-12-22T03:09:21;98470.75;;;3.32;100.00
76108;BME280;64834;52.516;10.528;2023-12-22T03:11:48;98473.28;;;3.30;100.00
76108;BME280;64834;52.516;10.528;2023-12-22T03:14:13;98465.59;;;3.32;100.00
76108;BME280;64834;52.516;10.528;2023-12-22T03:16:39;98483.91;;;3.36;100.00
76108;BME280;64834;52.516;10.528;2023-12-22T03:19:05;98475.09;;;3.33;100.00
76108;BME280;64834;52.516;10.528;2023-12-22T03:21:30;98457.00;;;3.33;100.00
76108;BME280;64834;52.516;10.528;2023-12-22T03:23:55;98461.09;;;3.28;100.00
76108;BME280;64834;52.516;10.528;2023-12-22T03:26:20;98427.63;;;3.31;100.00
76108;BME280;64834;52.516;10.528;2023-12-22T03:28:46;98457.75;;;3.30;100.00
76108;BME280;64834;52.516;10.528;2023-12-22T03:31:11;98447.41;;;3.30;100.00
76108;BME280;64834;52.516;10.528;2023-12-22T03:33:36;98444.84;;;3.30;100.00
76108;BME280;64834;52.516;10.528;2023-12-22T03:36:02;98458.00;;;3.35;100.00
76108;BME280;64834;52.516;10.528;2023-12-22T03:38:27;98448.59;;;3.37;100.00
76108;BME280;64834;52.516;10.528;2023-12-22T03:40:53;98440.56;;;3.31;100.00
76108;BME280;64834;52.516;10.528;2023-12-22T03:43:18;98446.47;;;3.28;100.00
76108;BME280;64834;52.516;10.528;2023-12-22T03:45:44;98435.69;;;3.19;100.00
76108;BME280;64834;52.516;10.528;2023-12-22T03:48:09;98456.88;;;3.12;100.00
76108;BME280;64834;52.516;10.528;2023-12-22T03:50:34;98446.81;;;3.00;100.00
76108;BME280;64834;52.516;10.528;2023-12-22T03:53:00;98459.59;;;2.97;100.00
76108;BME280;64834;52.516;10.528;2023-12-22T03:55:25;98446.31;;;2.89;100.00
76108;BME280;64834;52.516;10.528;2023-12-22T03:57:50;98459.88;;;2.85;100.00
76108;BME280;64834;52.516;10.528;2023-12-22T04:00:16;98469.25;;;2.83;100.00
76108;BME280;64834;52.516;10.528;2023-12-22T04:02:41;98450.44;;;2.86;100.00
76108;BME280;64834;52.516;10.528;2023-12-22T04:05:07;98450.19;;;2.81;100.00
76108;BME280;64834;52.516;10.528;2023-12-22T04:07:32;98480.53;;;2.85;100.00
76108;BME280;64834;52.516;10.528;2023-12-22T04:09:57;98488.28;;;2.85;100.00
76108;BME280;64834;52.516;10.528;2023-12-22T04:12:23;98477.00;;;2.83;100.00
76108;BME280;64834;52.516;10.528;2023-12-22T04:14:48;98483.06;;;2.84;100.00
76108;BME280;64834;52.516;10.528;2023-12-22T04:17:13;98487.34;;;2.83;100.00
76108;BME280;64834;52.516;10.528;2023-12-22T04:19:39;98479.72;;;2.86;100.00
76108;BME280;64834;52.516;10.528;2023-12-22T04:22:04;98481.50;;;2.87;100.00
76108;BME280;64834;52.516;10.528;2023-12-22T04:24:29;98481.56;;;2.89;100.00
76108;BME280;64834;52.516;10.528;2023-12-22T04:26:55;98487.66;;;2.89;100.00
76108;BME280;64834;52.516;10.528;2023-12-22T04:29:20;98485.84;;;2.88;100.00
76108;BME280;64834;52.516;10.528;2023-12-22T04:31:45;98484.44;;;2.95;100.00
76108;BME280;64834;52.516;10.528;2023-12-22T04:34:13;98472.53;;;2.97;100.00
76108;BME280;64834;52.516;10.528;2023-12-22T04:36:38;98466.59;;;3.00;100.00
76108;BME280;64834;52.516;10.528;2023-12-22T04:39:04;98459.09;;;3.04;100.00
76108;BME280;64834;52.516;10.528;2023-12-22T04:41:29;98481.16;;;2.97;100.00
76108;BME280;64834;52.516;10.528;2023-12-22T04:43:54;98446.53;;;2.94;100.00
76108;BME280;64834;52.516;10.528;2023-12-22T04:46:19;98476.13;;;3.01;100.00
76108;BME280;64834;52.516;10.528;2023-12-22T04:48:45;98465.72;;;2.99;100.00
76108;BME280;64834;52.516;10.528;2023-12-22T04:51:10;98468.53;;;3.04;100.00
76108;BME280;64834;52.516;10.528;2023-12-22T04:53:35;98478.28;;;3.09;100.00
76108;BME280;64834;52.516;10.528;2023-12-22T04:56:01;98464.78;;;3.15;100.00
76108;BME280;64834;52.516;10.528;2023-12-22T04:58:26;98474.44;;;3.19;100.00
76108;BME280;64834;52.516;10.528;2023-12-22T05:00:51;98477.78;;;3.16;100.00
76108;BME280;64834;52.516;10.528;2023-12-22T05:03:17;98503.22;;;3.27;100.00
76108;BME280;64834;52.516;10.528;2023-12-22T05:05:42;98490.25;;;3.25;100.00
76108;BME280;64834;52.516;10.528;2023-12-22T05:08:07;98512.03;;;3.30;100.00
76108;BME280;64834;52.516;10.528;2023-12-22T05:10:33;98519.13;;;3.34;100.00
76108;BME280;64834;52.516;10.528;2023-12-22T05:12:58;98506.63;;;3.25;100.00
76108;BME280;64834;52.516;10.528;2023-12-22T05:15:23;98519.66;;;3.27;100.00
76108;BME280;64834;52.516;10.528;2023-12-22T05:17:48;98554.94;;;3.27;100.00
76108;BME280;64834;52.516;10.528;2023-12-22T05:20:14;98539.03;;;3.19;100.00
76108;BME280;64834;52.516;10.528;2023-12-22T05:22:40;98540.41;;;2.94;100.00
76108;BME280;64834;52.516;10.528;2023-12-22T05:25:06;98529.91;;;2.41;100.00
76108;BME280;64834;52.516;10.528;2023-12-22T05:27:31;98552.91;;;2.20;100.00
76108;BME280;64834;52.516;10.528;2023-12-22T05:29:56;98546.81;;;2.20;100.00
76108;BME280;64834;52.516;10.528;2023-12-22T05:32:26;98540.13;;;2.07;100.00
76108;BME280;64834;52.516;10.528;2023-12-22T05:34:52;98550.84;;;1.98;100.00
76108;BME280;64834;52.516;10.528;2023-12-22T05:37:17;98562.72;;;1.80;100.00
76108;BME280;64834;52.516;10.528;2023-12-22T05:39:42;98546.56;;;1.68;100.00
76108;BME280;64834;52.516;10.528;2023-12-22T05:42:09;98547.03;;;1.60;100.00
76108;BME280;64834;52.516;10.528;2023-12-22T05:44:34;98532.84;;;1.52;100.00
76108;BME280;64834;52.516;10.528;2023-12-22T05:46:59;98529.19;;;1.49;100.00
76108;BME280;64834;52.516;10.528;2023-12-22T05:49:25;98532.75;;;1.51;100.00
76108;BME280;64834;52.516;10.528;2023-12-22T05:51:50;98526.69;;;1.50;100.00
76108;BME280;64834;52.516;10.528;2023-12-22T05:54:16;98538.88;;;1.53;100.00
76108;BME280;64834;52.516;10.528;2023-12-22T05:56:44;98549.19;;;1.53;100.00
76108;BME280;64834;52.516;10.528;2023-12-22T05:59:09;98560.75;;;1.59;100.00
76108;BME280;64834;52.516;10.528;2023-12-22T06:01:34;98547.31;;;1.65;100.00
76108;BME280;64834;52.516;10.528;2023-12-22T06:04:01;98535.72;;;1.73;100.00
76108;BME280;64834;52.516;10.528;2023-12-22T06:06:27;98542.72;;;1.76;100.00
76108;BME280;64834;52.516;10.528;2023-12-22T06:08:55;98546.09;;;1.89;100.00
76108;BME280;64834;52.516;10.528;2023-12-22T06:11:20;98519.16;;;2.01;100.00
76108;BME280;64834;52.516;10.528;2023-12-22T06:13:47;98519.75;;;2.11;100.00
76108;BME280;64834;52.516;10.528;2023-12-22T06:16:13;98531.59;;;2.24;100.00
76108;BME280;64834;52.516;10.528;2023-12-22T06:18:40;98534.56;;;2.32;100.00
76108;BME280;64834;52.516;10.528;2023-12-22T06:21:05;98574.69;;;2.41;100.00
76108;BME280;64834;52.516;10.528;2023-12-22T06:23:30;98563.63;;;2.44;100.00
76108;BME280;64834;52.516;10.528;2023-12-22T06:25:55;98567.25;;;2.48;100.00
76108;BME280;64834;52.516;10.528;2023-12-22T06:28:21;98578.94;;;2.57;100.00
76108;BME280;64834;52.516;10.528;2023-12-22T06:30:46;98587.59;;;2.58;100.00
76108;BME280;64834;52.516;10.528;2023-12-22T06:33:12;98584.28;;;2.60;100.00
76108;BME280;64834;52.516;10.528;2023-12-22T06:35:38;98586.69;;;2.57;100.00
76108;BME280;64834;52.516;10.528;2023-12-22T06:38:05;98588.69;;;2.63;100.00
76108;BME280;64834;52.516;10.528;2023-12-22T06:40:32;98589.59;;;2.63;100.00
76108;BME280;64834;52.516;10.528;2023-12-22T06:42:57;98614.03;;;2.70;100.00
76108;BME280;64834;52.516;10.528;2023-12-22T06:45:22;98622.69;;;2.54;100.00
76108;BME280;64834;52.516;10.528;2023-12-22T06:47:47;98599.03;;;1.99;100.00
76108;BME280;64834;52.516;10.528;2023-12-22T06:50:13;98611.31;;;1.88;100.00
76108;BME280;64834;52.516;10.528;2023-12-22T06:52:38;98572.34;;;1.99;100.00
76108;BME280;64834;52.516;10.528;2023-12-22T06:55:04;98559.66;;;2.18;100.00
76108;BME280;64834;52.516;10.528;2023-12-22T06:57:29;98573.47;;;2.35;100.00
76108;BME280;64834;52.516;10.528;2023-12-22T06:59:54;98582.06;;;2.19;100.00
76108;BME280;64834;52.516;10.528;2023-12-22T07:02:20;98590.13;;;2.09;100.00
76108;BME280;64834;52.516;10.528;2023-12-22T07:07:46;98598.44;;;1.88;100.00
76108;BME280;64834;52.516;10.528;2023-12-22T07:10:11;98615.19;;;1.80;100.00
76108;BME280;64834;52.516;10.528;2023-12-22T07:12:37;98615.47;;;1.70;100.00
76108;BME280;64834;52.516;10.528;2023-12-22T07:15:04;98626.50;;;1.68;100.00
76108;BME280;64834;52.516;10.528;2023-12-22T07:17:32;98633.72;;;1.58;100.00
76108;BME280;64834;52.516;10.528;2023-12-22T07:19:57;98641.53;;;1.60;100.00
76108;BME280;64834;52.516;10.528;2023-12-22T07:22:23;98625.44;;;1.64;100.00
76108;BME280;64834;52.516;10.528;2023-12-22T07:24:48;98622.56;;;1.74;100.00
76108;BME280;64834;52.516;10.528;2023-12-22T07:27:14;98621.63;;;1.88;100.00
76108;BME280;64834;52.516;10.528;2023-12-22T07:29:40;98614.50;;;1.99;100.00
76108;BME280;64834;52.516;10.528;2023-12-22T07:32:05;98623.41;;;2.04;100.00
76108;BME280;64834;52.516;10.528;2023-12-22T07:34:30;98631.28;;;2.22;100.00
76108;BME280;64834;52.516;10.528;2023-12-22T07:36:56;98651.78;;;2.35;100.00
76108;BME280;64834;52.516;10.528;2023-12-22T07:39:21;98670.44;;;2.46;100.00
76108;BME280;64834;52.516;10.528;2023-12-22T07:41:47;98678.59;;;2.54;100.00
76108;BME280;64834;52.516;10.528;2023-12-22T07:44:13;98680.63;;;2.59;100.00
76108;BME280;64834;52.516;10.528;2023-12-22T07:46:38;98702.63;;;2.69;100.00
76108;BME280;64834;52.516;10.528;2023-12-22T07:49:03;98713.81;;;2.84;100.00
76108;BME280;64834;52.516;10.528;2023-12-22T07:51:29;98725.84;;;2.84;100.00
76108;BME280;64834;52.516;10.528;2023-12-22T07:53:54;98736.31;;;2.87;100.00
76108;BME280;64834;52.516;10.528;2023-12-22T07:56:19;98724.81;;;2.96;100.00
76108;BME280;64834;52.516;10.528;2023-12-22T07:58:45;98718.09;;;3.00;100.00
76108;BME280;64834;52.516;10.528;2023-12-22T08:01:10;98736.84;;;2.96;100.00
76108;BME280;64834;52.516;10.528;2023-12-22T08:03:35;98724.56;;;2.92;100.00
76108;BME280;64834;52.516;10.528;2023-12-22T08:06:02;98708.50;;;2.97;100.00
76108;BME280;64834;52.516;10.528;2023-12-22T08:08:28;98711.16;;;2.99;100.00
76108;BME280;64834;52.516;10.528;2023-12-22T08:10:53;98691.28;;;2.98;100.00
76108;BME280;64834;52.516;10.528;2023-12-22T08:13:19;98725.91;;;3.02;100.00
76108;BME280;64834;52.516;10.528;2023-12-22T08:15:44;98727.53;;;3.00;100.00
76108;BME280;64834;52.516;10.528;2023-12-22T08:18:09;98715.84;;;3.06;100.00
76108;BME280;64834;52.516;10.528;2023-12-22T08:20:35;98733.34;;;3.12;99.35
76108;BME280;64834;52.516;10.528;2023-12-22T08:23:00;98719.94;;;3.19;97.99
76108;BME280;64834;52.516;10.528;2023-12-22T08:25:26;98712.38;;;3.22;98.04
76108;BME280;64834;52.516;10.528;2023-12-22T08:27:51;98714.28;;;3.26;97.75
76108;BME280;64834;52.516;10.528;2023-12-22T08:30:17;98722.84;;;3.25;98.43
76108;BME280;64834;52.516;10.528;2023-12-22T08:32:42;98721.81;;;3.21;99.61
76108;BME280;64834;52.516;10.528;2023-12-22T08:35:08;98737.41;;;3.23;100.00
76108;BME280;64834;52.516;10.528;2023-12-22T08:37:33;98742.91;;;3.29;100.00
76108;BME280;64834;52.516;10.528;2023-12-22T08:39:58;98743.34;;;3.38;100.00
76108;BME280;64834;52.516;10.528;2023-12-22T08:42:25;98753.69;;;3.38;100.00
76108;BME280;64834;52.516;10.528;2023-12-22T08:44:50;98734.09;;;3.42;100.00
76108;BME280;64834;52.516;10.528;2023-12-22T08:47:16;98780.06;;;3.47;100.00
76108;BME280;64834;52.516;10.528;2023-12-22T08:49:41;98770.75;;;3.51;100.00
76108;BME280;64834;52.516;10.528;2023-12-22T08:52:07;98775.41;;;3.58;100.00
76108;BME280;64834;52.516;10.528;2023-12-22T08:54:32;98778.75;;;3.56;100.00
76108;BME280;64834;52.516;10.528;2023-12-22T08:56:59;98780.38;;;3.54;100.00
76108;BME280;64834;52.516;10.528;2023-12-22T08:59:24;98789.50;;;3.47;100.00
76108;BME280;64834;52.516;10.528;2023-12-22T09:01:49;98801.44;;;3.45;100.00
76108;BME280;64834;52.516;10.528;2023-12-22T09:04:15;98783.28;;;3.43;100.00
76108;BME280;64834;52.516;10.528;2023-12-22T09:06:41;98793.28;;;3.37;100.00
76108;BME280;64834;52.516;10.528;2023-12-22T09:09:07;98794.34;;;3.41;100.00
76108;BME280;64834;52.516;10.528;2023-12-22T09:11:34;98808.81;;;3.37;100.00
76108;BME280;64834;52.516;10.528;2023-12-22T09:13:59;98799.19;;;3.35;100.00
76108;BME280;64834;52.516;10.528;2023-12-22T09:16:25;98790.88;;;3.40;100.00
76108;BME280;64834;52.516;10.528;2023-12-22T09:18:51;98803.81;;;3.40;100.00
76108;BME280;64834;52.516;10.528;2023-12-22T09:21:16;98797.81;;;3.41;100.00
76108;BME280;64834;52.516;10.528;2023-12-22T09:23:45;98803.97;;;3.43;100.00
76108;BME280;64834;52.516;10.528;2023-12-22T09:26:14;98805.84;;;3.46;100.00
76108;BME280;64834;52.516;10.528;2023-12-22T09:28:40;98809.94;;;3.42;100.00
76108;BME280;64834;52.516;10.528;2023-12-22T09:31:09;98808.06;;;3.56;100.00
76108;BME280;64834;52.516;10.528;2023-12-22T09:33:35;98802.91;;;3.72;100.00
76108;BME280;64834;52.516;10.528;2023-12-22T09:36:00;98818.63;;;3.77;100.00
76108;BME280;64834;52.516;10.528;2023-12-22T09:38:25;98803.50;;;4.01;100.00
76108;BME280;64834;52.516;10.528;2023-12-22T09:40:51;98790.59;;;4.19;100.00
76108;BME280;64834;52.516;10.528;2023-12-22T09:43:18;98795.56;;;4.32;100.00
76108;BME280;64834;52.516;10.528;2023-12-22T09:45:45;98796.22;;;4.46;100.00
76108;BME280;64834;52.516;10.528;2023-12-22T09:48:12;98804.22;;;4.50;99.93
76108;BME280;64834;52.516;10.528;2023-12-22T09:50:42;98777.59;;;4.53;98.83
76108;BME280;64834;52.516;10.528;2023-12-22T09:53:08;98801.06;;;4.56;97.93
76108;BME280;64834;52.516;10.528;2023-12-22T09:55:34;98781.28;;;4.58;96.36
76108;BME280;64834;52.516;10.528;2023-12-22T09:58:00;98790.03;;;4.60;95.48
76108;BME280;64834;52.516;10.528;2023-12-22T10:00:30;98816.88;;;4.62;90.62
76108;BME280;64834;52.516;10.528;2023-12-22T10:02:56;98836.88;;;4.65;93.31
76108;BME280;64834;52.516;10.528;2023-12-22T10:05:21;98831.91;;;4.51;93.46
76108;BME280;64834;52.516;10.528;2023-12-22T10:07:47;98854.13;;;4.46;95.42
76108;BME280;64834;52.516;10.528;2023-12-22T10:10:13;98845.84;;;4.53;95.26
76108;BME280;64834;52.516;10.528;2023-12-22T10:12:41;98849.06;;;4.49;95.14
76108;BME280;64834;52.516;10.528;2023-12-22T10:15:10;98849.97;;;4.50;96.29
76108;BME280;64834;52.516;10.528;2023-12-22T10:17:36;98840.19;;;4.44;97.13
76108;BME280;64834;52.516;10.528;2023-12-22T10:20:03;98845.28;;;4.43;97.98
76108;BME280;64834;52.516;10.528;2023-12-22T10:22:28;98839.28;;;4.44;98.66
76108;BME280;64834;52.516;10.528;2023-12-22T10:24:54;98852.09;;;4.41;98.97
76108;BME280;64834;52.516;10.528;2023-12-22T10:27:19;98851.13;;;4.39;99.83
76108;BME280;64834;52.516;10.528;2023-12-22T10:29:55;98836.09;;;4.31;100.00
76108;BME280;64834;52.516;10.528;2023-12-22T10:32:21;98848.66;;;4.24;100.00
76108;BME280;64834;52.516;10.528;2023-12-22T10:34:47;98845.00;;;4.20;100.00
76108;BME280;64834;52.516;10.528;2023-12-22T10:37:12;98849.41;;;4.21;100.00
76108;BME280;64834;52.516;10.528;2023-12-22T10:39:38;98844.31;;;4.06;100.00
76108;BME280;64834;52.516;10.528;2023-12-22T10:42:03;98851.13;;;4.04;100.00
76108;BME280;64834;52.516;10.528;2023-12-22T10:44:29;98859.03;;;4.07;100.00
76108;BME280;64834;52.516;10.528;2023-12-22T10:46:56;98858.31;;;4.10;100.00
76108;BME280;64834;52.516;10.528;2023-12-22T10:49:22;98843.38;;;3.88;100.00
76108;BME280;64834;52.516;10.528;2023-12-22T10:51:49;98841.13;;;3.78;100.00
76108;BME280;64834;52.516;10.528;2023-12-22T10:54:14;98829.91;;;3.77;100.00
76108;BME280;64834;52.516;10.528;2023-12-22T10:56:40;98841.41;;;4.00;100.00
76108;BME280;64834;52.516;10.528;2023-12-22T10:59:06;98837.53;;;4.09;100.00
76108;BME280;64834;52.516;10.528;2023-12-22T11:01:32;98834.84;;;4.07;100.00
76108;BME280;64834;52.516;10.528;2023-12-22T11:04:02;98827.97;;;4.07;100.00
76108;BME280;64834;52.516;10.528;2023-12-22T11:06:37;98814.91;;;4.04;100.00
76108;BME280;64834;52.516;10.528;2023-12-22T11:09:09;98796.47;;;3.98;100.00
76108;BME280;64834;52.516;10.528;2023-12-22T11:11:38;98811.81;;;3.95;100.00
76108;BME280;64834;52.516;10.528;2023-12-22T11:14:04;98811.03;;;3.96;100.00
76108;BME280;64834;52.516;10.528;2023-12-22T11:16:31;98817.50;;;3.88;100.00
76108;BME280;64834;52.516;10.528;2023-12-22T11:19:04;98812.75;;;3.79;100.00
76108;BME280;64834;52.516;10.528;2023-12-22T11:21:30;98824.81;;;3.79;100.00
76108;BME280;64834;52.516;10.528;2023-12-22T11:23:56;98819.13;;;3.70;100.00
76108;BME280;64834;52.516;10.528;2023-12-22T11:26:23;98824.97;;;3.66;100.00
76108;BME280;64834;52.516;10.528;2023-12-22T11:28:49;98838.41;;;3.59;100.00
76108;BME280;64834;52.516;10.528;2023-12-22T11:31:16;98826.84;;;3.52;100.00
76108;BME280;64834;52.516;10.528;2023-12-22T11:33:49;98846.16;;;3.59;100.00
76108;BME280;64834;52.516;10.528;2023-12-22T11:36:16;98847.25;;;3.31;100.00
76108;BME280;64834;52.516;10.528;2023-12-22T11:38:43;98814.38;;;3.29;100.00
76108;BME280;64834;52.516;10.528;2023-12-22T11:41:11;98828.69;;;3.22;100.00
76108;BME280;64834;52.516;10.528;2023-12-22T11:43:39;98810.91;;;3.28;100.00
76108;BME280;64834;52.516;10.528;2023-12-22T11:46:05;98808.56;;;3.16;100.00
76108;BME280;64834;52.516;10.528;2023-12-22T11:48:30;98819.47;;;3.27;100.00
76108;BME280;64834;52.516;10.528;2023-12-22T11:50:56;98829.72;;;3.25;100.00
76108;BME280;64834;52.516;10.528;2023-12-22T11:53:23;98846.28;;;3.29;100.00
76108;BME280;64834;52.516;10.528;2023-12-22T11:56:07;98844.19;;;3.22;100.00
76108;BME280;64834;52.516;10.528;2023-12-22T11:58:43;98836.66;;;3.27;100.00
76108;BME280;64834;52.516;10.528;2023-12-22T12:01:10;98839.16;;;3.25;100.00
76108;BME280;64834;52.516;10.528;2023-12-22T12:03:37;98826.50;;;3.30;100.00
76108;BME280;64834;52.516;10.528;2023-12-22T12:08:35;98818.66;;;3.28;100.00
76108;BME280;64834;52.516;10.528;2023-12-22T12:11:00;98816.97;;;3.29;100.00
76108;BME280;64834;52.516;10.528;2023-12-22T12:13:28;98810.16;;;3.31;100.00
76108;BME280;64834;52.516;10.528;2023-12-22T12:15:55;98815.28;;;3.29;100.00
76108;BME280;64834;52.516;10.528;2023-12-22T12:18:22;98800.91;;;3.34;100.00
76108;BME280;64834;52.516;10.528;2023-12-22T12:20:48;98786.28;;;3.35;100.00
76108;BME280;64834;52.516;10.528;2023-12-22T12:23:15;98783.69;;;3.35;100.00
76108;BME280;64834;52.516;10.528;2023-12-22T12:25:40;98794.84;;;3.34;100.00
76108;BME280;64834;52.516;10.528;2023-12-22T12:28:08;98803.63;;;3.37;100.00
76108;BME280;64834;52.516;10.528;2023-12-22T12:30:35;98806.22;;;3.37;100.00
76108;BME280;64834;52.516;10.528;2023-12-22T12:33:07;98805.41;;;3.38;100.00
76108;BME280;64834;52.516;10.528;2023-12-22T12:35:34;98803.88;;;3.42;100.00
76108;BME280;64834;52.516;10.528;2023-12-22T12:38:00;98791.78;;;3.41;100.00
76108;BME280;64834;52.516;10.528;2023-12-22T12:40:27;98782.25;;;3.40;100.00
76108;BME280;64834;52.516;10.528;2023-12-22T12:42:55;98780.63;;;3.42;100.00
76108;BME280;64834;52.516;10.528;2023-12-22T12:45:24;98790.22;;;3.44;100.00
76108;BME280;64834;52.516;10.528;2023-12-22T12:48:00;98783.66;;;3.51;100.00
76108;BME280;64834;52.516;10.528;2023-12-22T12:50:26;98784.81;;;3.56;100.00
76108;BME280;64834;52.516;10.528;2023-12-22T12:52:53;98793.44;;;3.57;100.00